Kezdőlap
METAR-TAF:

METAR-TAF

Repülőterek :

Fort Collins-Loveland Municipal Airport

Fort Collins-Loveland, Colorado, Amerikai Egyesült Államok

földrajzi szélesség: 40-27N, földrajzi hosszúság: 105-01W, magasság: 1529 m

Jelenlegi meteorológiai megfigyelések

A jelentés 36 perccel ezelõtt készült, 21:56 UTC
Kelet-északkeleti szél 7 kt
Hőmérséklet 2°C
Páratartalom 75%
Légköri nyomás 1024 hPa
Látótávolság: 16.1 km
Borult 1800 lábon
enyhe esõ

METAR: KFNL 182156Z 07007KT 10SM -RA OVC018 02/M02 A3023 RMK AO2 RAB47 SLP251 P0000 T00171017

Idő: 16:32 (22:32 UTC)


TAF: hiányzik

Meteorológiai megfigyelések és előrejelzések több, mint 4000 repülőtéren (METAR és TAF jelentéseket).

A térképen piros és sárga pontok jelzik az elérhető meteorológiai állomásokat.

Mozgassa az egeret a pont fölött, hogy megjelenjen az állomás neve.

Azután kattintson az időjárási megfigyelések és előrejelzések megtekintéséhez.

A térkép megváltoztatása: kattintson a fekete keresztel jelölt zöld gombra ráközelítéshez, a vonallal jelölt zöld gombra távolításhoz, vagy a zöld nyilakra a szomszédos térképek eléréséhez.


METAR-TAF: